Map

Track Data

SID SEASON NUMBER BASIN SUBBASIN NAME ISO_TIME NATURE LAT LON WMO_WIND WMO_PRES WMO_AGENCY TRACK_TYPE DIST2LAND LANDFALL IFLAG USA_AGENCY USA_ATCF_ID USA_LAT USA_LON USA_RECORD USA_STATUS USA_WIND USA_PRES USA_SSHS USA_R34_NE USA_R34_SE USA_R34_SW USA_R34_NW USA_R50_NE USA_R50_SE USA_R50_SW USA_R50_NW USA_R64_NE USA_R64_SE USA_R64_SW USA_R64_NW USA_POCI USA_ROCI USA_RMW USA_EYE TOKYO_LAT TOKYO_LON TOKYO_GRADE TOKYO_WIND TOKYO_PRES TOKYO_R50_DIR TOKYO_R50_LONG TOKYO_R50_SHORT TOKYO_R30_DIR TOKYO_R30_LONG TOKYO_R30_SHORT TOKYO_LAND CMA_LAT CMA_LON CMA_CAT CMA_WIND CMA_PRES HKO_LAT HKO_LON HKO_CAT HKO_WIND HKO_PRES NEWDELHI_LAT NEWDELHI_LON NEWDELHI_GRADE NEWDELHI_WIND NEWDELHI_PRES NEWDELHI_CI NEWDELHI_DP NEWDELHI_POCI REUNION_LAT REUNION_LON REUNION_TYPE REUNION_WIND REUNION_PRES REUNION_TNUM REUNION_CI REUNION_RMW REUNION_R34_NE REUNION_R34_SE REUNION_R34_SW REUNION_R34_NW REUNION_R50_NE REUNION_R50_SE REUNION_R50_SW REUNION_R50_NW REUNION_R64_NE REUNION_R64_SE REUNION_R64_SW REUNION_R64_NW BOM_LAT BOM_LON BOM_TYPE BOM_WIND BOM_PRES BOM_TNUM BOM_CI BOM_RMW BOM_R34_NE BOM_R34_SE BOM_R34_SW BOM_R34_NW BOM_R50_NE BOM_R50_SE BOM_R50_SW BOM_R50_NW BOM_R64_NE BOM_R64_SE BOM_R64_SW BOM_R64_NW BOM_ROCI BOM_POCI BOM_EYE BOM_POS_METHOD BOM_PRES_METHOD NADI_LAT NADI_LON NADI_CAT NADI_WIND NADI_PRES WELLINGTON_LAT WELLINGTON_LON WELLINGTON_WIND WELLINGTON_PRES DS824_LAT DS824_LON DS824_STAGE DS824_WIND DS824_PRES TD9636_LAT TD9636_LON TD9636_STAGE TD9636_WIND TD9636_PRES TD9635_LAT TD9635_LON TD9635_WIND TD9635_PRES TD9635_ROCI NEUMANN_LAT NEUMANN_LON NEUMANN_CLASS NEUMANN_WIND NEUMANN_PRES MLC_LAT MLC_LON MLC_CLASS MLC_WIND MLC_PRES USA_GUST BOM_GUST BOM_GUST_PER REUNION_GUST REUNION_GUST_PER USA_SEAHGT USA_SEARAD_NE USA_SEARAD_SE USA_SEARAD_SW USA_SEARAD_NW STORM_SPEED STORM_DIR
2008224N24122 2008 50 WP MM NOT_NAMED 2008-08-11 00:00:00 NR 23.7000 122.200 main 71 71 O_____________ jtwc_wp WP112008 23.7000 122.200 DB 15 1010 -3 16 40
2008224N24122 2008 50 WP MM NOT_NAMED 2008-08-11 03:00:00 NR 24.2954 122.742 main 83 83 P_____________ WP112008 24.2954 122.742 DB 15 1010 -3 16 40
2008224N24122 2008 50 WP MM NOT_NAMED 2008-08-11 06:00:00 NR 24.9000 123.300 main 131 131 O_____________ jtwc_wp WP112008 24.9000 123.300 DB 15 1010 -3 16 40
2008224N24122 2008 50 WP MM NOT_NAMED 2008-08-11 09:00:00 NR 25.5147 123.885 main 198 198 P_____________ WP112008 25.5147 123.885 DB 15 1010 -3 16 42
2008224N24122 2008 50 WP MM NOT_NAMED 2008-08-11 12:00:00 NR 26.1000 124.500 main 279 279 O_____________ jtwc_wp WP112008 26.1000 124.500 DB 15 1010 -3 16 45
2008224N24122 2008 50 WP MM NOT_NAMED 2008-08-11 15:00:00 NR 26.6676 125.165 main 372 372 P_____________ WP112008 26.6676 125.165 DB 15 1009 -3 15 49
2008224N24122 2008 50 WP MM NOT_NAMED 2008-08-11 18:00:00 NR 27.1000 125.800 main 434 434 O_____________ jtwc_wp WP112008 27.1000 125.800 DB 15 1009 -3 1011 150 15 12 59
2008224N24122 2008 50 WP MM NOT_NAMED 2008-08-11 21:00:00 NR 27.2872 126.339 main 471 471 P_____________ WP112008 27.2872 126.339 DB 15 1009 -3 9 71
2008224N24122 2008 50 WP MM NOT_NAMED 2008-08-12 00:00:00 NR 27.4000 126.800 main 510 495 O_____________ jtwc_wp WP112008 27.4000 126.800 DB 15 1010 -3 9 66
2008224N24122 2008 50 WP MM NOT_NAMED 2008-08-12 03:00:00 NR 27.6500 127.260 main 480 445 P_____________ WP112008 27.6500 127.260 DB 15 1010 -3 9 55
2008224N24122 2008 50 WP MM NOT_NAMED 2008-08-12 06:00:00 NR 27.9000 127.600 main 445 425 O_____________ jtwc_wp WP112008 27.9000 127.600 DB 15 1010 -3 6 47
2008224N24122 2008 50 WP MM NOT_NAMED 2008-08-12 09:00:00 NR 28.0573 127.760 main 416 407 P_____________ WP112008 28.0573 127.760 DB 15 1010 -3 3 30
2008224N24122 2008 50 WP MM NOT_NAMED 2008-08-12 12:00:00 NR 28.2000 127.800 main 407 388 O_____________ jtwc_wp WP112008 28.2000 127.800 DB 15 1010 -3 3 13
2008224N24122 2008 50 WP MM NOT_NAMED 2008-08-12 15:00:00 NR 28.3850 127.837 main 388 370 P_____________ WP112008 28.3850 127.837 DB 17 1008 -3 4 0
2008224N24122 2008 50 WP MM NOT_NAMED 2008-08-12 18:00:00 NR 28.6000 127.800 main 370 359 O_____________ jtwc_wp WP112008 28.6000 127.800 DB 20 1007 -3 5 345
2008224N24122 2008 50 WP MM NOT_NAMED 2008-08-12 21:00:00 NR 28.8499 127.695 main 359 349 P_____________ WP112008 28.8499 127.695 DB 22 1005 -3 6 332
2008224N24122 2008 50 WP MM NOT_NAMED 2008-08-13 00:00:00 TS 29.1000 127.500 main 349 349 O_____________ jtwc_wp WP112008 29.1000 127.500 TD 25 1004 -1 850 6 316
2008224N24122 2008 50 WP MM NOT_NAMED 2008-08-13 03:00:00 TS 29.2926 127.207 main 357 357 P_____________ WP112008 29.2926 127.207 TD 25 1004 -1 929 7 307
2008224N24122 2008 50 WP MM NOT_NAMED 2008-08-13 06:00:00 TS 29.5000 126.900 main 368 368 O_____________ jtwc_wp WP112008 29.5000 126.900 TD 25 1004 -1 1008 150 25 7 315
2008224N24122 2008 50 WP MM NOT_NAMED 2008-08-13 09:00:00 TS 29.7775 126.655 main 369 345 P_____________ WP112008 29.7775 126.655 TD 27 1002 -1 1008 150 25 7 330
2008224N24122 2008 50 WP MM NOT_NAMED 2008-08-13 12:00:00 TS 30.1000 126.500 main 345 312 O_____________ jtwc_wp WP112008 30.1000 126.500 TD 30 1000 -1 1008 150 25 7 347
2008224N24122 2008 50 WP MM NOT_NAMED 2008-08-13 15:00:00 TS 30.4124 126.484 main 312 267 P_____________ WP112008 30.4124 126.484 TD 32 998 -1 1007 147 30 7 0
2008224N24122 2008 50 WP MM NOT_NAMED 2008-08-13 18:00:00 TS 30.8000 126.500 main 267 211 O_____________ jtwc_wp WP112008 30.8000 126.500 TS 35 996 0 1006 145 35 9 354
2008224N24122 2008 50 WP MM NOT_NAMED 2008-08-13 21:00:00 TS 31.3050 126.371 main 211 144 P_____________ WP112008 31.3050 126.371 TS 35 996 0 1006 152 35 11 351
2008224N24122 2008 50 WP MM NOT_NAMED 2008-08-14 00:00:00 TS 31.9000 126.300 main 144 78 O_____________ jtwc_wp WP112008 31.9000 126.300 TS 35 996 0 1006 160 35 13 1
2008224N24122 2008 50 WP MM NOT_NAMED 2008-08-14 03:00:00 TS 32.5721 126.402 main 66 9 P_____________ WP112008 32.5721 126.402 TS 32 998 -1 1007 157 30 13 15
2008224N24122 2008 50 WP MM NOT_NAMED 2008-08-14 06:00:00 TS 33.2000 126.700 main 9 0 O_____________ jtwc_wp WP112008 33.2000 126.700 TD 30 1000 -1 1008 155 25 12 33
2008224N24122 2008 50 WP MM NOT_NAMED 2008-08-14 09:00:00 TS 33.6153 127.198 main 29 29 P_____________ WP112008 33.6153 127.198 TD 27 1002 -1 1008 155 25 12 49
2008224N24122 2008 50 WP MM NOT_NAMED 2008-08-14 12:00:00 TS 34.0000 127.800 main 63 33 O_____________ jtwc_wp WP112008 34.0000 127.800 TD 25 1004 -1 1008 155 25 13 45
2008224N24122 2008 50 WP MM NOT_NAMED 2008-08-14 15:00:00 TS 34.5493 128.320 main 33 0 P_____________ WP112008 34.5493 128.320 TD 22 1005 -1 14 39
2008224N24122 2008 50 WP MM NOT_NAMED 2008-08-14 18:00:00 NR 35.1000 128.900 main 0 0 O_____________ jtwc_wp WP112008 35.1000 128.900 DB 20 1007 -3 14 46
2008224N24122 2008 50 WP MM NOT_NAMED 2008-08-14 21:00:00 NR 35.5444 129.591 main 18 18 P_____________ WP112008 35.5444 129.591 DB 20 1007 -3 15 57
2008224N24122 2008 50 WP MM NOT_NAMED 2008-08-15 00:00:00 NR 35.9000 130.400 main 72 72 O_____________ jtwc_wp WP112008 35.9000 130.400 DB 20 1007 -3 16 65
2008224N24122 2008 50 WP MM NOT_NAMED 2008-08-15 03:00:00 NR 36.2102 131.335 main 147 117 P_____________ WP112008 36.2102 131.335 DB 20 1007 -3 16 72
2008224N24122 2008 50 WP MM NOT_NAMED 2008-08-15 06:00:00 NR 36.4000 132.300 main 113 100 O_____________ jtwc_wp WP112008 36.4000 132.300 DB 20 1007 -3 15 81
2008224N24122 2008 50 WP MM NOT_NAMED 2008-08-15 09:00:00 NR 36.4523 133.203 main 111 96 P_____________ WP112008 36.4523 133.203 DB 20 1007 -3 14 90
2008224N24122 2008 50 WP MM NOT_NAMED 2008-08-15 12:00:00 NR 36.4000 134.000 main 96 77 O_____________ jtwc_wp WP112008 36.4000 134.000 DB 20 1007 -3 12 97
2008224N24122 2008 50 WP MM NOT_NAMED 2008-08-15 15:00:00 NR 36.3077 134.645 main 77 55 P_____________ WP112008 36.3077 134.645 DB 20 1007 -3 10 102
2008224N24122 2008 50 WP MM NOT_NAMED 2008-08-15 18:00:00 NR 36.2000 135.200 main 55 O_____________ jtwc_wp WP112008 36.2000 135.200 DB 20 1007 -3 9 104

Digital Typhoon Data and Search

About IBTrACS Database

This database is a web-friendly format of International Best Track Archive for Climate Stewardship (IBTrACS), a global best track data archive curated by NOAA dating back to 1842.

Updated: 2021-10-08